createdAt,value
2023-05-04T00:01:54.613Z,16
2023-05-04T00:04:25.463Z,15
2023-05-04T00:06:56.076Z,14
2023-05-04T00:09:26.900Z,12
2023-05-04T00:11:57.553Z,13
2023-05-04T00:14:28.284Z,12
2023-05-04T00:16:58.980Z,14
2023-05-04T00:19:29.727Z,13
2023-05-04T00:22:00.434Z,16
2023-05-04T00:24:30.909Z,15
2023-05-04T00:27:01.602Z,16
2023-05-04T00:29:32.042Z,13
2023-05-04T00:32:02.873Z,18
2023-05-04T00:34:33.156Z,22
2023-05-04T00:37:03.312Z,21
2023-05-04T00:39:34.036Z,16
2023-05-04T00:42:04.401Z,15
2023-05-04T00:44:34.855Z,17
2023-05-04T00:47:05.305Z,16
2023-05-04T00:49:35.654Z,19
2023-05-04T00:52:05.735Z,22
2023-05-04T00:54:35.998Z,20
2023-05-04T00:57:06.643Z,18
2023-05-04T00:59:37.375Z,16
2023-05-04T01:02:07.824Z,16
2023-05-04T01:04:38.577Z,16
2023-05-04T01:07:08.944Z,22
2023-05-04T01:09:39.691Z,17
2023-05-04T01:12:10.151Z,19
2023-05-04T01:14:40.894Z,20
2023-05-04T01:17:11.719Z,16
2023-05-04T01:19:42.386Z,21
2023-05-04T01:22:12.467Z,19
2023-05-04T01:24:42.699Z,22
2023-05-04T01:27:13.072Z,22
2023-05-04T01:29:43.835Z,22
2023-05-04T01:32:14.219Z,19
2023-05-04T01:34:44.702Z,23
2023-05-04T01:37:15.147Z,17
2023-05-04T01:39:45.912Z,22
2023-05-04T01:42:16.303Z,20
2023-05-04T01:44:46.786Z,22
2023-05-04T01:47:16.920Z,25
2023-05-04T01:49:47.559Z,25
2023-05-04T01:52:18.217Z,36
2023-05-04T01:54:48.419Z,25
2023-05-04T01:57:18.873Z,38
2023-05-04T01:59:49.172Z,23
2023-05-04T02:02:19.396Z,24
2023-05-04T02:04:49.726Z,40
2023-05-04T02:07:19.731Z,27
2023-05-04T02:09:49.949Z,22
2023-05-04T02:12:20.409Z,23
2023-05-04T02:14:51.162Z,24
2023-05-04T02:17:21.924Z,30
2023-05-04T02:19:52.142Z,28
2023-05-04T02:22:22.566Z,23
2023-05-04T02:24:53.352Z,25
2023-05-04T02:27:23.287Z,76
2023-05-04T02:29:54.064Z,69
2023-05-04T02:32:24.745Z,26
2023-05-04T02:34:55.315Z,72
2023-05-04T02:37:25.807Z,87
2023-05-04T02:39:56.230Z,27
2023-05-04T02:42:26.378Z,22
2023-05-04T02:44:56.980Z,26
2023-05-04T02:47:27.586Z,27
2023-05-04T02:49:58.162Z,25
2023-05-04T02:52:28.198Z,25
2023-05-04T02:54:58.769Z,26
2023-05-04T02:57:28.835Z,27
2023-05-04T02:59:59.438Z,24
2023-05-04T03:02:29.477Z,25
2023-05-04T03:04:59.650Z,22
2023-05-04T03:07:29.781Z,31
2023-05-04T03:10:00.324Z,28
2023-05-04T03:12:30.704Z,26
2023-05-04T03:15:01.248Z,27
2023-05-04T03:17:31.453Z,24
2023-05-04T03:20:01.683Z,28
2023-05-04T03:22:31.702Z,21
2023-05-04T03:25:01.864Z,28
2023-05-04T03:27:32.706Z,23
2023-05-04T03:30:03.518Z,27
2023-05-04T03:32:34.006Z,24
2023-05-04T03:35:04.767Z,25
2023-05-04T03:37:35.435Z,23
2023-05-04T03:40:06.460Z,23
2023-05-04T03:42:36.803Z,26
2023-05-04T03:45:06.817Z,25
2023-05-04T03:47:37.704Z,23
2023-05-04T03:50:08.348Z,26
2023-05-04T03:52:38.451Z,23
2023-05-04T03:55:08.936Z,22
2023-05-04T03:57:39.057Z,24
2023-05-04T04:00:09.475Z,27
2023-05-04T04:02:40.007Z,25
2023-05-04T04:05:10.335Z,26
2023-05-04T04:07:40.776Z,23
2023-05-04T04:10:11.561Z,31
2023-05-04T04:12:42.232Z,23
2023-05-04T04:15:12.693Z,23
2023-05-04T04:17:43.369Z,25
2023-05-04T04:20:13.819Z,23
2023-05-04T04:22:44.481Z,23
2023-05-04T04:25:14.675Z,22
2023-05-04T04:27:45.069Z,21
2023-05-04T04:30:15.305Z,23
2023-05-04T04:32:45.769Z,24
2023-05-04T04:35:15.852Z,24
2023-05-04T04:37:46.281Z,20
2023-05-04T04:40:16.521Z,25
2023-05-04T04:42:47.128Z,24
2023-05-04T04:45:17.800Z,24
2023-05-04T04:47:48.348Z,22
2023-05-04T04:50:19.002Z,26
2023-05-04T04:52:49.713Z,19
2023-05-04T04:55:20.478Z,25
2023-05-04T04:57:51.227Z,24
2023-05-04T05:00:21.670Z,25
2023-05-04T05:02:52.230Z,25
2023-05-04T05:05:22.563Z,29
2023-05-04T05:07:53.224Z,28
2023-05-04T05:10:23.388Z,22
2023-05-04T05:12:53.838Z,25
2023-05-04T05:15:24.360Z,25
2023-05-04T05:17:54.433Z,26
2023-05-04T05:20:24.842Z,24
2023-05-04T05:22:55.250Z,25
2023-05-04T05:25:25.943Z,24
2023-05-04T05:27:56.436Z,27
2023-05-04T05:30:27.160Z,26
2023-05-04T05:32:57.376Z,29
2023-05-04T05:35:27.374Z,30
2023-05-04T05:37:57.557Z,26
2023-05-04T05:40:28.314Z,25
2023-05-04T05:42:58.704Z,27
2023-05-04T05:45:29.078Z,23
2023-05-04T05:47:59.258Z,31
2023-05-04T05:50:29.352Z,27
2023-05-04T05:53:00.057Z,26
2023-05-04T05:55:30.162Z,26
2023-05-04T05:58:00.679Z,30
2023-05-04T06:00:31.095Z,27
2023-05-04T06:03:01.291Z,31
2023-05-04T06:05:31.271Z,25
2023-05-04T06:08:01.638Z,28
2023-05-04T06:10:32.151Z,30
2023-05-04T06:13:02.351Z,23
2023-05-04T06:15:33.040Z,31
2023-05-04T06:18:03.441Z,31
2023-05-04T06:20:33.808Z,23
2023-05-04T06:23:03.880Z,25
2023-05-04T06:25:33.904Z,31
2023-05-04T06:28:04.415Z,27
2023-05-04T06:30:34.909Z,26
2023-05-04T06:33:05.656Z,26
2023-05-04T06:35:36.378Z,25
2023-05-04T06:38:06.929Z,26
2023-05-04T06:40:37.563Z,31
2023-05-04T06:43:07.765Z,28
2023-05-04T06:45:37.778Z,26
2023-05-04T06:48:08.255Z,29
2023-05-04T06:50:38.722Z,29
2023-05-04T06:53:09.483Z,23
2023-05-04T06:55:39.524Z,21
2023-05-04T06:58:10.186Z,27
2023-05-04T07:00:40.836Z,23
2023-05-04T07:03:11.565Z,25
2023-05-04T07:05:41.557Z,21
2023-05-04T07:08:12.227Z,27
2023-05-04T07:10:42.876Z,26
2023-05-04T07:13:13.370Z,24
2023-05-04T07:15:43.636Z,23
2023-05-04T07:18:13.712Z,24
2023-05-04T07:20:44.068Z,21
2023-05-04T07:23:14.360Z,23
2023-05-04T07:25:44.422Z,26
2023-05-04T07:28:14.719Z,24
2023-05-04T07:30:45.324Z,24
2023-05-04T07:33:15.686Z,23
2023-05-04T07:35:46.108Z,25
2023-05-04T07:38:16.289Z,24
2023-05-04T07:40:46.926Z,24
2023-05-04T07:43:17.587Z,25
2023-05-04T07:45:48.415Z,27
2023-05-04T07:48:19.076Z,22
2023-05-04T07:50:49.371Z,25
2023-05-04T07:53:20.175Z,22
2023-05-04T07:55:50.764Z,20
2023-05-04T07:58:21.106Z,23
2023-05-04T08:00:52.052Z,28
2023-05-04T08:03:22.045Z,24
2023-05-04T08:05:52.848Z,25
2023-05-04T08:08:22.821Z,21
2023-05-04T08:10:53.035Z,21
2023-05-04T08:13:23.072Z,22
2023-05-04T08:15:53.827Z,22
2023-05-04T08:18:23.811Z,23
2023-05-04T08:20:54.376Z,22
2023-05-04T08:23:25.125Z,21
2023-05-04T08:25:55.453Z,21
2023-05-04T08:28:25.644Z,19
2023-05-04T08:30:56.116Z,26
2023-05-04T08:33:26.644Z,22
2023-05-04T08:35:56.909Z,23
2023-05-04T08:38:27.652Z,23
2023-05-04T08:40:58.178Z,22
2023-05-04T08:43:28.462Z,20
2023-05-04T08:45:58.725Z,22
2023-05-04T08:48:28.836Z,24
2023-05-04T08:50:59.081Z,23
2023-05-04T08:53:29.574Z,22
2023-05-04T08:56:00.135Z,21
2023-05-04T08:58:30.127Z,43
2023-05-04T09:01:00.303Z,34
2023-05-04T09:03:31.161Z,36
2023-05-04T09:06:01.456Z,36
2023-05-04T09:08:31.793Z,25
2023-05-04T09:11:02.158Z,24
2023-05-04T09:13:32.596Z,26
2023-05-04T09:16:03.069Z,22
2023-05-04T09:18:33.500Z,18
2023-05-04T09:21:04.257Z,19
2023-05-04T09:23:34.496Z,27
2023-05-04T09:26:04.716Z,20
2023-05-04T09:28:34.804Z,20
2023-05-04T09:31:04.948Z,19
2023-05-04T09:33:35.102Z,23
2023-05-04T09:36:05.305Z,23
2023-05-04T09:38:35.419Z,21
2023-05-04T09:41:05.924Z,21
2023-05-04T09:43:36.318Z,20
2023-05-04T09:46:07.113Z,20
2023-05-04T09:48:37.179Z,20
2023-05-04T09:51:07.616Z,18
2023-05-04T09:53:37.718Z,22
2023-05-04T09:56:08.380Z,20
2023-05-04T09:58:38.275Z,28
2023-05-04T10:01:08.301Z,22
2023-05-04T10:03:39.148Z,17
2023-05-04T10:06:09.590Z,20
2023-05-04T10:08:39.663Z,17
2023-05-04T10:11:10.212Z,17
2023-05-04T10:13:40.367Z,20
2023-05-04T10:16:10.680Z,16
2023-05-04T10:18:41.007Z,16
2023-05-04T10:21:11.420Z,19
2023-05-04T10:23:41.538Z,17
2023-05-04T10:26:11.748Z,19
2023-05-04T10:28:42.025Z,16
2023-05-04T10:31:12.498Z,23
2023-05-04T10:33:42.988Z,19
2023-05-04T10:36:13.654Z,15
2023-05-04T10:38:44.007Z,20
2023-05-04T10:41:14.106Z,18
2023-05-04T10:43:44.468Z,16
2023-05-04T10:46:14.905Z,15
2023-05-04T10:48:44.987Z,19
2023-05-04T10:51:15.321Z,14
2023-05-04T10:53:45.590Z,16
2023-05-04T10:56:15.952Z,17
2023-05-04T10:58:45.968Z,15
2023-05-04T11:01:16.336Z,16
2023-05-04T11:03:46.745Z,17
2023-05-04T11:06:16.988Z,15
2023-05-04T11:08:47.317Z,15
2023-05-04T11:11:17.663Z,15
2023-05-04T11:13:48.038Z,17
2023-05-04T11:16:18.375Z,14
2023-05-04T11:18:48.679Z,14
2023-05-04T11:21:18.984Z,16
2023-05-04T11:23:49.135Z,15
2023-05-04T11:26:19.326Z,14
2023-05-04T11:28:49.685Z,13
2023-05-04T11:31:19.664Z,16
2023-05-04T11:33:49.911Z,15
2023-05-04T11:36:20.229Z,16
2023-05-04T11:38:50.503Z,14
2023-05-04T11:41:20.796Z,14
2023-05-04T11:43:51.088Z,13
2023-05-04T11:46:21.405Z,14
2023-05-04T11:48:51.649Z,13
2023-05-04T11:51:21.929Z,16
2023-05-04T11:53:52.217Z,13
2023-05-04T11:56:22.499Z,14
2023-05-04T11:58:52.869Z,15
2023-05-04T12:01:23.066Z,13
2023-05-04T12:03:54.352Z,16
2023-05-04T12:06:24.169Z,17
2023-05-04T12:08:54.446Z,15
2023-05-04T12:11:24.731Z,13
2023-05-04T12:13:55.023Z,14
2023-05-04T12:16:25.338Z,13
2023-05-04T12:18:55.572Z,15
2023-05-04T12:21:25.881Z,14
2023-05-04T12:23:56.162Z,16
2023-05-04T12:26:26.420Z,15
2023-05-04T12:28:56.936Z,15
2023-05-04T12:31:27.391Z,17
2023-05-04T12:33:57.466Z,13
2023-05-04T12:36:27.487Z,16
2023-05-04T12:38:57.771Z,14
2023-05-04T12:41:28.398Z,27
2023-05-04T12:43:58.827Z,32
2023-05-04T12:46:29.100Z,101
2023-05-04T12:48:59.666Z,107
2023-05-04T12:51:29.711Z,39
2023-05-04T12:54:00.397Z,52
2023-05-04T12:56:30.473Z,17
2023-05-04T12:59:00.813Z,39
2023-05-04T13:01:30.871Z,27
2023-05-04T13:04:01.698Z,24
2023-05-04T13:06:32.150Z,18
2023-05-04T13:09:02.459Z,19
2023-05-04T13:11:32.694Z,21
2023-05-04T13:14:03.632Z,11
2023-05-04T13:16:33.813Z,13
2023-05-04T13:19:04.031Z,11
2023-05-04T13:21:34.269Z,14
2023-05-04T13:24:04.517Z,13
2023-05-04T13:26:34.773Z,13
2023-05-04T13:29:05.036Z,15
2023-05-04T13:31:35.276Z,12
2023-05-04T13:34:05.476Z,11
2023-05-04T13:36:35.822Z,12
2023-05-04T13:39:05.941Z,13
2023-05-04T13:41:36.184Z,12
2023-05-04T13:44:06.405Z,13
2023-05-04T13:46:36.664Z,15
2023-05-04T13:49:07.411Z,12
2023-05-04T13:51:37.651Z,13
2023-05-04T13:54:07.865Z,14
2023-05-04T13:56:38.104Z,11
2023-05-04T13:59:08.334Z,12
2023-05-04T14:01:38.553Z,11
2023-05-04T14:04:08.769Z,11
2023-05-04T14:06:39.003Z,13
2023-05-04T14:09:09.235Z,12
2023-05-04T14:11:39.484Z,12
2023-05-04T14:14:09.728Z,12
2023-05-04T14:16:40.518Z,13
2023-05-04T14:19:10.741Z,13
2023-05-04T14:21:40.989Z,10
2023-05-04T14:24:11.221Z,14
2023-05-04T14:26:41.464Z,13
2023-05-04T14:29:11.727Z,13
2023-05-04T14:31:41.928Z,13
2023-05-04T14:34:12.137Z,11
2023-05-04T14:36:42.368Z,9
2023-05-04T14:39:12.585Z,15
2023-05-04T14:41:43.394Z,15
2023-05-04T14:44:14.212Z,12
2023-05-04T14:46:44.967Z,16
2023-05-04T14:49:24.512Z,14
2023-05-04T14:51:45.992Z,14
2023-05-04T14:54:16.173Z,11
2023-05-04T14:56:46.409Z,15
2023-05-04T14:59:19.053Z,11
2023-05-04T15:01:47.474Z,11
2023-05-04T15:04:17.644Z,12
2023-05-04T15:06:47.928Z,12
2023-05-04T15:09:18.110Z,16
2023-05-04T15:11:48.362Z,14
2023-05-04T15:14:18.384Z,18
2023-05-04T15:16:49.103Z,13
2023-05-04T15:19:19.440Z,11
2023-05-04T15:21:49.591Z,12
2023-05-04T15:24:19.804Z,16
2023-05-04T15:26:50.057Z,11
2023-05-04T15:29:20.846Z,13
2023-05-04T15:31:51.695Z,13
2023-05-04T15:34:21.861Z,14
2023-05-04T15:36:52.753Z,15
2023-05-04T15:39:22.875Z,14
2023-05-04T15:41:53.141Z,16
2023-05-04T15:44:23.524Z,14
2023-05-04T15:46:53.688Z,14
2023-05-04T15:49:23.861Z,13
2023-05-04T15:51:54.138Z,15
2023-05-04T15:54:24.368Z,15
2023-05-04T15:56:55.203Z,16
2023-05-04T15:59:25.532Z,11
2023-05-04T16:01:55.744Z,12
2023-05-04T16:04:26.088Z,12
2023-05-04T16:06:57.613Z,14
2023-05-04T16:09:26.965Z,14
2023-05-04T16:11:57.364Z,13
2023-05-04T16:14:27.760Z,11
2023-05-04T16:16:58.102Z,14
2023-05-04T16:19:28.254Z,13
2023-05-04T16:21:58.566Z,13
2023-05-04T16:24:28.779Z,17
2023-05-04T16:26:59.096Z,14
2023-05-04T16:29:29.324Z,14
2023-05-04T16:31:59.649Z,33
2023-05-04T16:34:29.966Z,13
2023-05-04T16:37:00.231Z,12
2023-05-04T16:39:30.472Z,13
2023-05-04T16:42:00.740Z,12
2023-05-04T16:44:30.995Z,13
2023-05-04T16:47:01.269Z,15
2023-05-04T16:49:31.608Z,14
2023-05-04T16:52:01.799Z,13
2023-05-04T16:54:32.598Z,12
2023-05-04T16:57:02.883Z,9
2023-05-04T16:59:33.225Z,10
2023-05-04T17:02:03.463Z,10
2023-05-04T17:04:34.284Z,10
2023-05-04T17:07:04.522Z,11
2023-05-04T17:09:34.714Z,14
2023-05-04T17:12:05.098Z,10
2023-05-04T17:14:35.224Z,15
2023-05-04T17:17:05.594Z,10
2023-05-04T17:19:35.729Z,12
2023-05-04T17:22:06.053Z,12
2023-05-04T17:24:36.831Z,13
2023-05-04T17:27:07.204Z,11
2023-05-04T17:29:37.401Z,12
2023-05-04T17:32:08.391Z,13
2023-05-04T17:34:38.423Z,18
2023-05-04T17:37:08.715Z,12
2023-05-04T17:39:38.972Z,16
2023-05-04T17:42:09.340Z,13
2023-05-04T17:44:39.594Z,15
2023-05-04T17:47:09.858Z,12
2023-05-04T17:49:40.211Z,12
2023-05-04T17:52:12.042Z,12
2023-05-04T17:54:40.795Z,14
2023-05-04T17:57:11.021Z,11
2023-05-04T17:59:41.446Z,13
2023-05-04T18:02:11.588Z,12
2023-05-04T18:04:41.979Z,12
2023-05-04T18:07:12.170Z,11
2023-05-04T18:09:42.529Z,12
2023-05-04T18:12:12.497Z,11
2023-05-04T18:14:42.878Z,9
2023-05-04T18:17:13.101Z,14
2023-05-04T18:19:43.403Z,12
2023-05-04T18:22:13.716Z,10
2023-05-04T18:24:44.001Z,12
2023-05-04T18:27:14.394Z,12
2023-05-04T18:29:44.651Z,11
2023-05-04T18:32:14.972Z,13
2023-05-04T18:34:45.241Z,14
2023-05-04T18:37:15.563Z,13
2023-05-04T18:39:45.837Z,10
2023-05-04T18:42:16.173Z,8
2023-05-04T18:44:46.467Z,10
2023-05-04T18:47:16.784Z,13
2023-05-04T18:49:47.082Z,12
2023-05-04T18:52:17.388Z,11
2023-05-04T18:54:47.701Z,12
2023-05-04T18:57:18.020Z,10
2023-05-04T18:59:48.341Z,10
2023-05-04T19:02:18.653Z,13
2023-05-04T19:04:49.038Z,10
2023-05-04T19:07:19.300Z,11
2023-05-04T19:09:49.614Z,10
2023-05-04T19:12:20.498Z,9
2023-05-04T19:14:50.832Z,13
2023-05-04T19:17:21.312Z,15
2023-05-04T19:19:52.050Z,11
2023-05-04T19:22:22.397Z,11
2023-05-04T19:24:52.733Z,11
2023-05-04T19:27:23.090Z,12
2023-05-04T19:29:53.388Z,12
2023-05-04T19:32:25.030Z,11
2023-05-04T19:34:54.074Z,10
2023-05-04T19:37:24.397Z,9
2023-05-04T19:39:54.831Z,9
2023-05-04T19:42:25.073Z,12
2023-05-04T19:44:55.481Z,9
2023-05-04T19:47:25.789Z,12
2023-05-04T19:49:56.216Z,10
2023-05-04T19:52:26.504Z,11
2023-05-04T19:54:56.965Z,10
2023-05-04T19:57:27.231Z,11
2023-05-04T19:59:57.738Z,12
2023-05-04T20:02:28.122Z,10
2023-05-04T20:04:58.364Z,9
2023-05-04T20:07:28.735Z,12
2023-05-04T20:09:59.117Z,11
2023-05-04T20:12:29.495Z,12
2023-05-04T20:14:59.863Z,10
2023-05-04T20:17:30.262Z,10
2023-05-04T20:20:00.615Z,12
2023-05-04T20:22:30.986Z,12
2023-05-04T20:25:01.357Z,11
2023-05-04T20:27:31.762Z,14
2023-05-04T20:30:02.244Z,10
2023-05-04T20:32:32.697Z,14
2023-05-04T20:35:02.976Z,10
2023-05-04T20:37:33.423Z,14
2023-05-04T20:40:03.361Z,13
2023-05-04T20:42:33.533Z,11
2023-05-04T20:45:03.877Z,11
2023-05-04T20:47:34.295Z,13
2023-05-04T20:50:04.740Z,12
2023-05-04T20:52:35.036Z,12
2023-05-04T20:55:05.414Z,11
2023-05-04T20:57:35.887Z,14
2023-05-04T21:00:06.452Z,12
2023-05-04T21:02:36.680Z,14
2023-05-04T21:05:06.959Z,16
2023-05-04T21:07:37.363Z,18
2023-05-04T21:10:07.854Z,14
2023-05-04T21:12:38.181Z,13
2023-05-04T21:15:08.502Z,16
2023-05-04T21:17:38.904Z,15
2023-05-04T21:20:09.327Z,16
2023-05-04T21:22:39.370Z,11
2023-05-04T21:25:09.471Z,18
2023-05-04T21:27:39.801Z,15
2023-05-04T21:30:10.297Z,14
2023-05-04T21:32:40.370Z,13
2023-05-04T21:35:10.402Z,14
2023-05-04T21:37:40.804Z,15
2023-05-04T21:40:11.199Z,14
2023-05-04T21:42:41.599Z,15
2023-05-04T21:45:12.019Z,13
2023-05-04T21:47:42.434Z,15
2023-05-04T21:50:12.436Z,18
2023-05-04T21:52:42.841Z,16
2023-05-04T21:55:13.257Z,18
2023-05-04T21:57:43.647Z,15
2023-05-04T22:00:13.786Z,16
2023-05-04T22:02:44.231Z,17
2023-05-04T22:05:14.593Z,14
2023-05-04T22:07:45.005Z,17
2023-05-04T22:10:15.411Z,18
2023-05-04T22:12:45.841Z,19
2023-05-04T22:15:16.233Z,19
2023-05-04T22:17:46.695Z,16
2023-05-04T22:20:17.049Z,16
2023-05-04T22:22:47.198Z,19
2023-05-04T22:25:17.579Z,20
2023-05-04T22:27:47.690Z,17
2023-05-04T22:30:18.076Z,16
2023-05-04T22:32:48.528Z,16
2023-05-04T22:35:19.319Z,21
2023-05-04T22:37:49.889Z,18
2023-05-04T22:40:20.296Z,21
2023-05-04T22:42:50.716Z,16
2023-05-04T22:45:21.235Z,17
2023-05-04T22:47:51.638Z,19
2023-05-04T22:50:21.684Z,18
2023-05-04T22:52:52.088Z,17
2023-05-04T22:55:22.469Z,17
2023-05-04T22:57:52.884Z,17
2023-05-04T23:00:23.043Z,17
2023-05-04T23:02:53.259Z,20
2023-05-04T23:05:23.262Z,20
2023-05-04T23:07:53.861Z,20
2023-05-04T23:10:24.148Z,18
2023-05-04T23:12:54.464Z,19
2023-05-04T23:15:24.503Z,18
2023-05-04T23:17:54.983Z,15
2023-05-04T23:20:25.019Z,19
2023-05-04T23:22:55.503Z,18
2023-05-04T23:25:25.940Z,22
2023-05-04T23:27:56.381Z,18
2023-05-04T23:30:26.836Z,20
2023-05-04T23:32:57.306Z,19
2023-05-04T23:35:28.022Z,19
2023-05-04T23:37:58.477Z,18
2023-05-04T23:40:29.200Z,16
2023-05-04T23:42:59.874Z,17
2023-05-04T23:45:30.173Z,16
2023-05-04T23:48:00.558Z,22
2023-05-04T23:50:30.701Z,24
2023-05-04T23:53:01.162Z,16
2023-05-04T23:55:32.056Z,23
2023-05-04T23:58:02.359Z,21
